Eureka, Montana
Current Conditions -  °F | °C
As of 3:26 PM on Sunday 23 Nov 2014 (Local Time) from KGPI Reporting Station
Moderate Snow Moderate Snow  
Wind Chill: 24°   Ceiling: 400
Heat Index: 33°   Visibility: 0.5mi
Dew Point: 32°   Wind: 12mph
Humidity: 96%   Direction: 160°SSE
Pressure: 29.93"   Gusts: NA
Location:  48.88°N, 115.05°W
Report Text: KGPI 232226Z 16010KT 1/2SM SN FG BKN004 OVC011 01/00 A2993 RMK AO2 P0002 T00060000
Loading
Personal Weather Stations






























Interactive Weather Map New forecast layout! Learn more

10-Day Weather Forecast

Advertisements
Track Severe Weather on mobile